CYYY

Mont Joli Airport

Mont-Joli, Quebec, Canada
METAR CYYY 260300Z 17016G25KT 30SM OVC025 M03/M07 A2993 RMK SC8 SLP142
Observed Flight Rules
Feb-26 @ 03:00 UTC (20 minutes ago) Marginal Visual Flight Rules
Wind Visibility Clouds
170° at 16 knots
 Gusting to 25 knots
30 miles
  • Overcast at 2,500' AGL
Temperatures Readings
Current -3°C / 27°F
Dewpoint -7°C / 19°F
Humidity 74%
Altimeter 29.93" Hg
Pressure 1014.2 hPa
Elevation 52
METAR CYYY 260300Z 17016G25KT 30SM OVC025 M03/M07 A2993 RMK SC8 SLP142
Observed Flight Rules
Feb-26 @ 03:00 UTC
(20 minutes ago)
MVFR
Wind Visibility
170° at 16 knots
 Gusting to 25 knots
30 miles
Clouds
  • Overcast at 2,500' AGL
Temperature Dewpoint
-3°C / 27°F -7°C / 19°F
Humidity Altimeter Pressure
74% 29.93" Hg 1014.2 hPa